Terminal Aerodrome Forecast
Issued by NWS

Home | Current Version | Previous Version | Graphics & Text | Print | Product List | Glossary On
Versions: 1 2 3 4 5 6 7 8 9 10 11 12 13 14 15 16 17 18 19 20
982
FTUS43 KBIS 031732
TAFMOT
TAF
KMOT 031732Z 0318/0418 26008KT P6SM -SN SCT015 OVC035
      TEMPO 0318/0319 3SM -SN OVC015
     FM031900 28013KT P6SM OVC025
     FM032300 28010KT P6SM OVC035
     FM040300 29009KT P6SM OVC015=

USA.gov is the U.S. government's official web portal to all federal, state and local government web resources and services.